Terminal Aerodrome Forecast
Issued by NWS

Home | Current Version | Previous Version | Text Only | Print | Product List | Glossary Off
Versions: 1 2 3 4 5 6 7 8 9 10 11 12 13 14 15 16 17

000
FTUS43 KMPX 261720
TAFAXN
TAF
KAXN 261720Z 2618/2718 24011KT P6SM SCT100 BKN250
     FM262100 27007KT P6SM SCT050 BKN100
      TEMPO 2621/2701 4SM -TSRA BKN040CB
     FM270100 36005KT P6SM VCSH SCT050 BKN100
     FM270500 06004KT P6SM SCT050 BKN100
     FM271400 06007KT P6SM VCSH SCT020 OVC040=

USA.gov is the U.S. government's official web portal to all federal, state and local government web resources and services.